createdAt,value
2019-03-12T00:01:43.752Z,6.27
2019-03-12T00:04:11.180Z,7.10
2019-03-12T00:06:38.578Z,6.53
2019-03-12T00:09:06.040Z,7.10
2019-03-12T00:11:33.438Z,6.60
2019-03-12T00:14:00.890Z,7.10
2019-03-12T00:16:28.293Z,7.43
2019-03-12T00:18:55.743Z,5.97
2019-03-12T00:21:23.161Z,6.60
2019-03-12T00:23:50.591Z,6.67
2019-03-12T00:26:18.015Z,6.43
2019-03-12T00:28:45.423Z,6.23
2019-03-12T00:31:12.837Z,7.07
2019-03-12T00:33:40.273Z,6.33
2019-03-12T00:36:07.702Z,6.60
2019-03-12T00:38:35.127Z,6.53
2019-03-12T00:41:02.553Z,5.63
2019-03-12T00:43:30.033Z,6.57
2019-03-12T00:45:57.445Z,7.43
2019-03-12T00:48:24.854Z,5.70
2019-03-12T00:50:52.250Z,5.27
2019-03-12T00:53:19.664Z,5.23
2019-03-12T00:55:47.089Z,4.87
2019-03-12T00:58:14.513Z,5.33
2019-03-12T01:00:41.923Z,6.03
2019-03-12T01:03:09.332Z,5.40
2019-03-12T01:05:36.755Z,4.93
2019-03-12T01:08:04.288Z,5.27
2019-03-12T01:10:31.676Z,4.20
2019-03-12T01:12:59.080Z,4.97
2019-03-12T01:15:26.498Z,5.07
2019-03-12T01:17:53.930Z,4.87
2019-03-12T01:20:21.354Z,5.17
2019-03-12T01:22:48.786Z,5.23
2019-03-12T01:25:16.183Z,4.67
2019-03-12T01:27:43.603Z,5.00
2019-03-12T01:30:11.056Z,4.90
2019-03-12T01:32:38.421Z,4.50
2019-03-12T01:35:05.833Z,4.87
2019-03-12T01:37:33.255Z,4.60
2019-03-12T01:40:00.647Z,4.43
2019-03-12T01:42:28.090Z,4.70
2019-03-12T01:44:55.486Z,4.33
2019-03-12T01:47:22.889Z,4.80
2019-03-12T01:49:50.316Z,4.17
2019-03-12T01:52:17.809Z,5.20
2019-03-12T01:54:45.161Z,4.50
2019-03-12T01:57:12.571Z,5.17
2019-03-12T01:59:40.213Z,5.87
2019-03-12T02:02:07.616Z,5.30
2019-03-12T02:04:35.025Z,5.03
2019-03-12T02:07:02.441Z,5.53
2019-03-12T02:09:29.877Z,4.93
2019-03-12T02:11:57.284Z,4.67
2019-03-12T02:14:24.710Z,5.33
2019-03-12T02:16:52.131Z,4.97
2019-03-12T02:19:19.548Z,4.50
2019-03-12T02:21:46.973Z,5.03
2019-03-12T02:24:14.364Z,4.67
2019-03-12T02:26:41.786Z,4.53
2019-03-12T02:29:09.190Z,4.87
2019-03-12T02:31:36.603Z,4.40
2019-03-12T02:34:04.031Z,4.47
2019-03-12T02:36:31.421Z,4.57
2019-03-12T02:38:58.846Z,4.20
2019-03-12T02:41:26.244Z,4.50
2019-03-12T02:43:53.656Z,5.93
2019-03-12T02:46:21.064Z,4.20
2019-03-12T02:48:48.492Z,4.47
2019-03-12T02:51:15.914Z,4.90
2019-03-12T02:53:43.322Z,4.80
2019-03-12T02:56:10.755Z,4.97
2019-03-12T02:58:38.178Z,4.73
2019-03-12T03:01:05.570Z,4.70
2019-03-12T03:03:32.999Z,5.60
2019-03-12T03:06:09.513Z,5.50
2019-03-12T03:08:36.941Z,5.00
2019-03-12T03:11:04.515Z,5.23
2019-03-12T03:13:31.929Z,5.33
2019-03-12T03:15:59.327Z,4.60
2019-03-12T03:18:26.750Z,5.27
2019-03-12T03:20:54.175Z,4.60
2019-03-12T03:23:21.578Z,5.03
2019-03-12T03:25:48.965Z,4.33
2019-03-12T03:28:16.391Z,4.83
2019-03-12T03:30:43.791Z,4.53
2019-03-12T03:33:11.209Z,4.60
2019-03-12T03:35:38.640Z,4.33
2019-03-12T03:38:06.038Z,4.23
2019-03-12T03:40:33.478Z,3.97
2019-03-12T03:43:00.881Z,4.33
2019-03-12T03:45:28.305Z,4.23
2019-03-12T03:47:55.787Z,4.00
2019-03-12T03:50:23.124Z,4.27
2019-03-12T03:52:50.538Z,4.50
2019-03-12T03:55:17.958Z,4.47
2019-03-12T03:57:45.376Z,4.30
2019-03-12T04:00:12.780Z,4.03
2019-03-12T04:02:40.204Z,4.07
2019-03-12T04:05:07.608Z,4.60
2019-03-12T04:07:35.029Z,3.80
2019-03-12T04:10:02.453Z,4.07
2019-03-12T04:12:29.850Z,4.00
2019-03-12T04:14:57.269Z,4.00
2019-03-12T04:17:24.692Z,3.63
2019-03-12T04:19:52.109Z,3.77
2019-03-12T04:22:19.524Z,3.70
2019-03-12T04:24:46.948Z,4.20
2019-03-12T04:27:14.351Z,4.03
2019-03-12T04:29:41.790Z,4.47
2019-03-12T04:32:09.213Z,3.53
2019-03-12T04:34:36.620Z,3.60
2019-03-12T04:37:04.142Z,4.23
2019-03-12T04:39:31.473Z,4.13
2019-03-12T04:41:58.892Z,4.13
2019-03-12T04:44:26.293Z,4.17
2019-03-12T04:46:53.712Z,4.60
2019-03-12T04:49:21.110Z,3.60
2019-03-12T04:51:48.526Z,4.07
2019-03-12T04:54:15.952Z,3.90
2019-03-12T04:56:43.354Z,3.10
2019-03-12T04:59:10.791Z,3.77
2019-03-12T05:01:38.211Z,3.27
2019-03-12T05:04:05.632Z,4.20
2019-03-12T05:06:33.027Z,3.27
2019-03-12T05:09:00.455Z,3.67
2019-03-12T05:11:27.853Z,4.60
2019-03-12T05:14:20.160Z,3.80
2019-03-12T05:16:47.561Z,3.80
2019-03-12T05:19:14.980Z,3.50
2019-03-12T05:21:44.860Z,3.17
2019-03-12T05:24:09.806Z,2.70
2019-03-12T05:26:37.246Z,3.50
2019-03-12T05:29:04.694Z,3.07
2019-03-12T05:31:32.105Z,3.47
2019-03-12T05:33:59.503Z,3.10
2019-03-12T05:36:26.931Z,3.30
2019-03-12T05:38:54.341Z,3.20
2019-03-12T05:41:21.771Z,3.20
2019-03-12T05:43:49.193Z,3.40
2019-03-12T05:46:16.595Z,2.90
2019-03-12T05:48:44.013Z,3.60
2019-03-12T05:51:11.422Z,2.53
2019-03-12T05:53:50.730Z,3.73
2019-03-12T05:56:18.150Z,4.00
2019-03-12T05:58:45.578Z,2.83
2019-03-12T06:01:12.987Z,3.20
2019-03-12T06:03:40.385Z,3.00
2019-03-12T06:06:07.805Z,3.43
2019-03-12T06:08:35.220Z,3.77
2019-03-12T06:11:02.629Z,3.30
2019-03-12T06:13:33.289Z,3.60
2019-03-12T06:16:00.625Z,3.00
2019-03-12T06:18:28.078Z,2.70
2019-03-12T06:20:55.457Z,3.30
2019-03-12T06:23:22.899Z,3.13
2019-03-12T06:25:50.305Z,2.87
2019-03-12T06:28:17.710Z,2.83
2019-03-12T06:30:45.140Z,3.40
2019-03-12T06:33:18.276Z,3.67
2019-03-12T06:35:48.380Z,2.60
2019-03-12T06:38:15.846Z,3.10
2019-03-12T06:40:48.944Z,3.40
2019-03-12T06:43:16.359Z,2.83
2019-03-12T06:45:46.472Z,2.93
2019-03-12T06:48:13.904Z,3.43
2019-03-12T06:50:59.666Z,3.00
2019-03-12T06:53:27.109Z,3.10
2019-03-12T06:55:54.516Z,2.70
2019-03-12T06:58:25.085Z,2.43
2019-03-12T07:00:55.110Z,2.77
2019-03-12T07:03:22.524Z,2.90
2019-03-12T07:05:55.454Z,2.50
2019-03-12T07:08:25.866Z,2.70
2019-03-12T07:10:56.454Z,2.63
2019-03-12T07:13:41.809Z,2.90
2019-03-12T07:16:09.222Z,3.37
2019-03-12T07:18:42.427Z,3.13
2019-03-12T07:21:18.613Z,2.73
2019-03-12T07:23:46.030Z,3.40
2019-03-12T07:26:28.849Z,3.20
2019-03-12T07:28:56.267Z,2.90
2019-03-12T07:31:23.786Z,3.07
2019-03-12T07:34:09.210Z,3.60
2019-03-12T07:36:36.656Z,3.00
2019-03-12T07:39:09.786Z,3.07
2019-03-12T07:41:49.440Z,3.30
2019-03-12T07:44:22.358Z,2.80
2019-03-12T07:47:01.580Z,2.87
2019-03-12T07:49:31.476Z,3.03
2019-03-12T07:52:16.727Z,2.90
2019-03-12T07:54:44.142Z,3.00
2019-03-12T07:57:20.715Z,3.30
2019-03-12T07:59:48.125Z,2.90
2019-03-12T08:02:15.559Z,2.73
2019-03-12T08:04:43.757Z,3.47
2019-03-12T08:07:13.369Z,3.57
2019-03-12T08:09:43.810Z,2.90
2019-03-12T08:12:11.140Z,3.00
2019-03-12T08:14:47.476Z,2.53
2019-03-12T08:17:21.081Z,2.93
2019-03-12T08:19:51.186Z,3.07
2019-03-12T08:22:18.582Z,3.10
2019-03-12T08:24:46.001Z,3.37
2019-03-12T08:27:28.733Z,2.50
2019-03-12T08:29:56.175Z,2.87
2019-03-12T08:32:35.864Z,2.63
2019-03-12T08:35:05.785Z,2.40
2019-03-12T08:37:33.195Z,3.13
2019-03-12T08:40:00.607Z,3.00
2019-03-12T08:42:30.941Z,2.47
2019-03-12T08:44:59.085Z,2.40
2019-03-12T08:47:31.438Z,2.60
2019-03-12T08:50:07.646Z,2.70
2019-03-12T08:52:37.746Z,2.70
2019-03-12T08:55:23.109Z,2.60
2019-03-12T08:57:53.271Z,2.57
2019-03-12T09:00:29.211Z,2.40
2019-03-12T09:03:11.707Z,2.93
2019-03-12T09:05:42.138Z,3.10
2019-03-12T09:08:15.040Z,2.37
2019-03-12T09:10:48.114Z,2.30
2019-03-12T09:13:15.539Z,2.20
2019-03-12T09:15:42.940Z,2.70
2019-03-12T09:18:19.588Z,2.83
2019-03-12T09:21:01.912Z,2.90
2019-03-12T09:23:35.139Z,2.80
2019-03-12T09:26:08.262Z,3.40
2019-03-12T09:28:35.698Z,2.50
2019-03-12T09:31:05.999Z,3.00
2019-03-12T09:33:33.395Z,2.80
2019-03-12T09:36:09.520Z,2.33
2019-03-12T09:38:45.763Z,2.43
2019-03-12T09:41:13.195Z,2.40
2019-03-12T09:43:56.052Z,2.70
2019-03-12T09:46:23.357Z,3.20
2019-03-12T09:49:08.748Z,2.80
2019-03-12T09:51:54.533Z,2.40
2019-03-12T09:54:27.935Z,3.03
2019-03-12T09:57:01.339Z,2.70
2019-03-12T09:59:31.439Z,2.53
2019-03-12T10:02:07.929Z,2.87
2019-03-12T10:04:47.557Z,3.00
2019-03-12T10:07:33.673Z,3.07
2019-03-12T10:10:01.100Z,2.20
2019-03-12T10:12:28.521Z,2.63
2019-03-12T10:15:14.035Z,2.57
2019-03-12T10:17:41.526Z,3.13
2019-03-12T10:20:11.775Z,2.50
2019-03-12T10:22:39.170Z,2.60
2019-03-12T10:25:24.716Z,2.50
2019-03-12T10:27:54.768Z,2.33
2019-03-12T10:30:22.159Z,2.20
2019-03-12T10:33:07.729Z,2.33
2019-03-12T10:35:53.370Z,1.97
2019-03-12T10:39:00.814Z,2.90
2019-03-12T10:41:40.464Z,2.13
2019-03-12T10:44:11.016Z,2.63
2019-03-12T10:46:38.451Z,2.47
2019-03-12T10:49:05.893Z,2.73
2019-03-12T10:51:33.327Z,2.20
2019-03-12T10:54:00.754Z,3.07
2019-03-12T10:56:28.172Z,2.67
2019-03-12T10:58:55.573Z,2.50
2019-03-12T11:01:23.058Z,2.87
2019-03-12T11:03:50.459Z,2.97
2019-03-12T11:06:17.942Z,2.70
2019-03-12T11:08:45.355Z,2.60
2019-03-12T11:11:12.816Z,2.30
2019-03-12T11:13:40.204Z,2.63
2019-03-12T11:16:07.639Z,2.57
2019-03-12T11:18:35.041Z,2.30
2019-03-12T11:21:02.501Z,2.60
2019-03-12T11:23:30.102Z,2.30
2019-03-12T11:25:57.495Z,2.27
2019-03-12T11:28:26.719Z,2.77
2019-03-12T11:30:52.340Z,2.40
2019-03-12T11:33:19.848Z,2.57
2019-03-12T11:35:47.213Z,2.57
2019-03-12T11:38:14.618Z,2.67
2019-03-12T11:40:42.056Z,2.47
2019-03-12T11:43:09.546Z,2.60
2019-03-12T11:45:38.059Z,2.67
2019-03-12T11:48:04.291Z,2.57
2019-03-12T11:50:31.718Z,3.00
2019-03-12T11:53:00.358Z,3.20
2019-03-12T11:55:26.581Z,2.23
2019-03-12T11:57:54.278Z,2.60
2019-03-12T12:00:24.095Z,2.40
2019-03-12T12:03:00.050Z,3.30
2019-03-12T12:05:18.895Z,2.87
2019-03-12T12:07:46.424Z,2.33
2019-03-12T12:10:13.765Z,2.50
2019-03-12T12:12:41.175Z,2.50
2019-03-12T12:15:08.584Z,2.80
2019-03-12T12:17:36.016Z,2.60
2019-03-12T12:20:03.423Z,2.53
2019-03-12T12:22:30.850Z,2.57
2019-03-12T12:24:58.245Z,2.37
2019-03-12T12:27:25.670Z,2.60
2019-03-12T12:29:53.073Z,2.37
2019-03-12T12:32:20.512Z,2.50
2019-03-12T12:34:47.929Z,2.33
2019-03-12T12:37:15.342Z,2.33
2019-03-12T12:39:42.784Z,2.70
2019-03-12T12:42:10.188Z,2.10
2019-03-12T12:44:37.697Z,2.07
2019-03-12T12:47:05.002Z,2.70
2019-03-12T12:49:32.441Z,2.43
2019-03-12T12:51:59.834Z,2.70
2019-03-12T12:54:27.273Z,2.57
2019-03-12T12:56:54.704Z,2.17
2019-03-12T12:59:22.121Z,2.43
2019-03-12T13:01:49.563Z,2.87
2019-03-12T13:04:16.983Z,2.27
2019-03-12T13:06:44.410Z,2.87
2019-03-12T13:09:11.834Z,2.50
2019-03-12T13:11:39.243Z,2.97
2019-03-12T13:14:06.666Z,2.73
2019-03-12T13:16:34.099Z,3.00
2019-03-12T13:19:01.498Z,2.67
2019-03-12T13:21:28.937Z,2.67
2019-03-12T13:23:56.346Z,2.30
2019-03-12T13:26:23.830Z,2.63
2019-03-12T13:28:51.219Z,2.77
2019-03-12T13:31:18.593Z,2.13
2019-03-12T13:33:46.016Z,2.20
2019-03-12T13:36:13.416Z,2.50
2019-03-12T13:38:45.417Z,2.70
2019-03-12T13:41:08.321Z,2.70
2019-03-12T13:43:35.740Z,2.73
2019-03-12T13:46:03.208Z,3.00
2019-03-12T13:48:30.606Z,2.97
2019-03-12T13:50:58.016Z,2.70
2019-03-12T13:53:25.461Z,2.47
2019-03-12T13:55:52.858Z,2.40
2019-03-12T13:58:20.308Z,2.27
2019-03-12T14:00:47.734Z,2.57
2019-03-12T14:03:15.326Z,2.80
2019-03-12T14:05:42.783Z,2.60
2019-03-12T14:08:10.222Z,2.50
2019-03-12T14:10:37.650Z,2.80
2019-03-12T14:13:05.067Z,2.40
2019-03-12T14:15:32.595Z,2.90
2019-03-12T14:18:00.001Z,2.97
2019-03-12T14:20:48.248Z,2.87
2019-03-12T14:23:15.665Z,2.40
2019-03-12T14:25:43.079Z,3.07
2019-03-12T14:28:10.526Z,2.77
2019-03-12T14:30:37.928Z,3.63
2019-03-12T14:33:05.364Z,3.30
2019-03-12T14:35:32.770Z,3.07
2019-03-12T14:38:00.257Z,3.80
2019-03-12T14:40:27.679Z,2.93
2019-03-12T14:42:55.119Z,2.70
2019-03-12T14:45:22.516Z,2.93
2019-03-12T14:47:49.927Z,3.37
2019-03-12T14:50:17.327Z,2.90
2019-03-12T14:52:56.358Z,3.47
2019-03-12T14:55:23.779Z,2.60
2019-03-12T14:57:51.208Z,3.50
2019-03-12T15:00:21.257Z,3.20
2019-03-12T15:02:48.977Z,3.53
2019-03-12T15:05:16.393Z,3.33
2019-03-12T15:07:43.847Z,3.10
2019-03-12T15:10:11.280Z,3.50
2019-03-12T15:12:38.699Z,3.97
2019-03-12T15:15:06.165Z,4.10
2019-03-12T15:17:33.559Z,4.07
2019-03-12T15:20:01.003Z,3.77
2019-03-12T15:22:28.464Z,3.70
2019-03-12T15:24:55.967Z,3.00
2019-03-12T15:27:23.381Z,3.30
2019-03-12T15:29:50.776Z,3.77
2019-03-12T15:32:18.183Z,3.00
2019-03-12T15:34:45.605Z,3.27
2019-03-12T15:37:13.033Z,3.20
2019-03-12T15:39:40.477Z,2.93
2019-03-12T15:42:07.916Z,2.90
2019-03-12T15:44:35.353Z,2.47
2019-03-12T15:47:02.796Z,2.70
2019-03-12T15:49:30.249Z,2.87
2019-03-12T15:51:57.676Z,2.90
2019-03-12T15:54:25.100Z,2.80
2019-03-12T15:56:52.502Z,2.67
2019-03-12T15:59:19.944Z,2.70
2019-03-12T16:01:47.339Z,2.70
2019-03-12T16:04:14.735Z,3.10
2019-03-12T16:06:42.271Z,3.10
2019-03-12T16:09:09.778Z,2.97
2019-03-12T16:11:37.183Z,2.90
2019-03-12T16:14:04.625Z,3.30
2019-03-12T16:16:32.110Z,3.40
2019-03-12T16:18:59.525Z,3.47
2019-03-12T16:21:27.023Z,3.23
2019-03-12T16:23:54.496Z,3.03
2019-03-12T16:26:22.010Z,3.10
2019-03-12T16:28:49.466Z,2.90
2019-03-12T16:31:17.002Z,3.17
2019-03-12T16:33:44.565Z,3.00
2019-03-12T16:36:12.019Z,3.40
2019-03-12T16:38:39.515Z,3.00
2019-03-12T16:41:06.990Z,3.10
2019-03-12T16:43:34.533Z,3.37
2019-03-12T16:46:02.958Z,3.30
2019-03-12T16:48:30.501Z,3.20
2019-03-12T16:50:57.906Z,3.33
2019-03-12T16:53:25.406Z,3.37
2019-03-12T16:55:53.076Z,3.00
2019-03-12T16:58:21.351Z,2.87
2019-03-12T17:00:48.752Z,3.10
2019-03-12T17:03:16.598Z,3.20
2019-03-12T17:05:43.994Z,3.03
2019-03-12T17:08:12.819Z,3.23
2019-03-12T17:10:40.263Z,3.10
2019-03-12T17:13:07.679Z,3.33
2019-03-12T17:15:35.119Z,3.00
2019-03-12T17:18:02.548Z,2.97
2019-03-12T17:20:29.990Z,3.57
2019-03-12T17:22:57.376Z,2.83
2019-03-12T17:25:24.812Z,3.47
2019-03-12T17:27:52.322Z,3.47
2019-03-12T17:30:22.463Z,2.70
2019-03-12T17:32:50.000Z,2.80
2019-03-12T17:35:26.035Z,2.60
2019-03-12T17:37:53.437Z,3.00
2019-03-12T17:40:20.869Z,4.03
2019-03-12T17:42:48.276Z,4.10
2019-03-12T17:45:15.705Z,3.83
2019-03-12T17:47:43.213Z,3.47
2019-03-12T17:50:15.187Z,3.80
2019-03-12T17:52:42.723Z,3.33
2019-03-12T17:55:10.051Z,2.87
2019-03-12T17:57:37.482Z,3.00
2019-03-12T18:00:16.911Z,3.23
2019-03-12T18:02:44.339Z,3.07
2019-03-12T18:05:11.740Z,2.90
2019-03-12T18:07:39.183Z,3.03
2019-03-12T18:10:06.652Z,4.00
2019-03-12T18:12:34.151Z,3.40
2019-03-12T18:15:01.663Z,3.50
2019-03-12T18:17:29.114Z,3.40
2019-03-12T18:19:56.630Z,3.20
2019-03-12T18:22:24.197Z,3.47
2019-03-12T18:24:51.517Z,2.90
2019-03-12T18:27:19.162Z,3.73
2019-03-12T18:29:46.658Z,3.07
2019-03-12T18:32:14.076Z,2.90
2019-03-12T18:34:41.608Z,3.10
2019-03-12T18:37:09.175Z,3.27
2019-03-12T18:39:36.642Z,2.90
2019-03-12T18:42:04.206Z,2.97
2019-03-12T18:44:31.710Z,3.37
2019-03-12T18:46:59.192Z,2.80
2019-03-12T18:49:26.757Z,2.50
2019-03-12T18:51:55.219Z,2.60
2019-03-12T18:54:22.928Z,2.80
2019-03-12T18:56:50.387Z,3.10
2019-03-12T18:59:17.867Z,3.27
2019-03-12T19:01:45.359Z,2.87
2019-03-12T19:04:12.908Z,3.20
2019-03-12T19:06:40.432Z,2.90
2019-03-12T19:09:07.917Z,2.97
2019-03-12T19:11:37.667Z,2.80
2019-03-12T19:14:03.081Z,3.33
2019-03-12T19:16:31.552Z,3.47
2019-03-12T19:18:59.903Z,3.13
2019-03-12T19:21:27.406Z,3.70
2019-03-12T19:23:55.703Z,3.37
2019-03-12T19:26:23.210Z,3.60
2019-03-12T19:28:51.083Z,2.70
2019-03-12T19:31:18.553Z,2.97
2019-03-12T19:33:46.073Z,2.60
2019-03-12T19:36:14.013Z,1.80
2019-03-12T19:38:41.484Z,1.50
2019-03-12T19:41:08.895Z,0.90
2019-03-12T19:43:36.371Z,1.13
2019-03-12T19:46:04.147Z,1.20
2019-03-12T19:48:31.581Z,1.30
2019-03-12T19:50:59.029Z,1.40
2019-03-12T19:53:26.470Z,2.00
2019-03-12T19:56:03.130Z,1.63
2019-03-12T19:58:30.569Z,2.03
2019-03-12T20:00:58.406Z,2.43
2019-03-12T20:03:25.737Z,1.90
2019-03-12T20:05:53.193Z,2.00
2019-03-12T20:08:20.731Z,1.83
2019-03-12T20:11:12.394Z,2.07
2019-03-12T20:14:04.760Z,2.03
2019-03-12T20:16:50.733Z,2.37
2019-03-12T20:19:54.759Z,2.80
2019-03-12T20:22:34.291Z,2.90
2019-03-12T20:25:07.466Z,3.00
2019-03-12T20:28:11.472Z,3.40
2019-03-12T20:31:06.381Z,4.10
2019-03-12T20:33:48.377Z,4.20
2019-03-12T20:36:40.412Z,5.37
2019-03-12T20:39:41.252Z,5.30
2019-03-12T20:42:36.364Z,5.67
2019-03-12T20:45:40.035Z,6.13
2019-03-12T20:48:15.935Z,6.63
2019-03-12T20:51:07.782Z,6.57
2019-03-12T20:53:50.281Z,7.20
2019-03-12T20:56:35.840Z,7.50
2019-03-12T20:59:27.351Z,7.03
2019-03-12T21:02:13.396Z,7.43
2019-03-12T21:04:46.293Z,7.20
2019-03-12T21:07:28.339Z,7.57
2019-03-12T21:10:25.820Z,6.67
2019-03-12T21:13:20.740Z,6.53
2019-03-12T21:15:57.326Z,5.87
2019-03-12T21:18:43.280Z,5.30
2019-03-12T21:21:32.029Z,4.63
2019-03-12T21:24:07.810Z,5.17
2019-03-12T21:26:56.145Z,3.93
2019-03-12T21:29:44.473Z,5.60
2019-03-12T21:32:11.904Z,4.17
2019-03-12T21:34:39.317Z,3.50
2019-03-12T21:37:07.636Z,3.37
2019-03-12T21:39:35.049Z,3.43
2019-03-12T21:42:02.484Z,2.40
2019-03-12T21:44:30.047Z,2.10
2019-03-12T21:46:57.422Z,2.30
2019-03-12T21:49:25.036Z,1.83
2019-03-12T21:51:52.429Z,2.07
2019-03-12T21:54:19.946Z,2.33
2019-03-12T21:56:47.471Z,2.07
2019-03-12T21:59:14.864Z,2.43
2019-03-12T22:01:42.292Z,2.60
2019-03-12T22:04:09.794Z,2.33
2019-03-12T22:06:37.203Z,2.40
2019-03-12T22:09:04.672Z,2.30
2019-03-12T22:11:32.133Z,2.30
2019-03-12T22:14:00.114Z,2.60
2019-03-12T22:16:27.594Z,2.30
2019-03-12T22:18:55.082Z,2.93
2019-03-12T22:21:22.590Z,2.67
2019-03-12T22:23:49.992Z,2.53
2019-03-12T22:26:17.394Z,3.10
2019-03-12T22:28:44.868Z,2.60
2019-03-12T22:31:12.307Z,3.30
2019-03-12T22:33:39.723Z,2.20
2019-03-12T22:36:07.201Z,3.07
2019-03-12T22:38:34.604Z,3.03
2019-03-12T22:41:02.056Z,2.77
2019-03-12T22:43:29.483Z,2.50
2019-03-12T22:45:56.891Z,2.70
2019-03-12T22:48:24.322Z,2.90
2019-03-12T22:50:51.799Z,3.43
2019-03-12T22:53:19.190Z,3.37
2019-03-12T22:55:46.685Z,2.40
2019-03-12T22:58:14.912Z,2.27
2019-03-12T23:00:42.347Z,2.20
2019-03-12T23:03:09.747Z,2.43
2019-03-12T23:05:37.171Z,2.00
2019-03-12T23:08:04.652Z,2.50
2019-03-12T23:10:32.133Z,1.90
2019-03-12T23:12:59.567Z,2.30
2019-03-12T23:15:27.055Z,2.27
2019-03-12T23:17:54.488Z,2.10
2019-03-12T23:20:21.890Z,2.30
2019-03-12T23:22:51.964Z,2.20
2019-03-12T23:25:16.804Z,2.03
2019-03-12T23:27:44.205Z,2.20
2019-03-12T23:30:20.674Z,2.50
2019-03-12T23:32:48.083Z,2.43
2019-03-12T23:35:15.573Z,2.50
2019-03-12T23:37:42.973Z,2.20
2019-03-12T23:40:10.395Z,1.97
2019-03-12T23:42:37.801Z,2.00
2019-03-12T23:45:05.275Z,2.07
2019-03-12T23:47:32.679Z,2.80
2019-03-12T23:50:00.247Z,2.13
2019-03-12T23:52:27.565Z,2.33
2019-03-12T23:54:54.940Z,2.00
2019-03-12T23:57:22.362Z,2.40
2019-03-12T23:59:49.776Z,2.30
